Sidney, MT

1:11 PM MDT on July 06, 2015 (GMT -0600)
Miller's Subdivision | | Change Station
CLOSE
Current Station
Personal Weather Station
Location: Sidney, MT
Elevation: 1969 ft
Nearby Weather Stations

Elev 1969 ft 47.72 °N, 104.19 °W | Updated 3 seconds ago

Scattered Clouds
Scattered Clouds
70.9 °F
Feels Like 77 °F
N
9.2
Wind Variable Wind from North
Gusts 11.4 mph

Today
High -- | Low -- °F
--% Chance of Precip.
Yesterday
High -- | Low -- °F
Precip. -- in
5:05 AM 8:56 PM
Waning Gibbous, 73% visible
Pressure 30.19 in
Visibility 9.0 miles
Clouds Scattered Clouds 5000 ft
Heat Index 77 °F
Dew Point 51 °F
Humidity 50%
Rainfall 0.00 in
Snow Depth Not available.
UV 9 out of 12
Pollen 4.70 out of 12
Air Quality Not available.
Flu Activity Not available.
METAR KSDY 061855Z AUTO 29007KT 9SM SCT050 22/08 A3019 RMK AO1

More Conditions Fewer Conditions

Pressure 30.19 in
Visibility 9.0 miles
Clouds Scattered Clouds 5000 ft
Heat Index 77 °F
Dew Point 51 °F
Humidity 50%
Rainfall 0.00 in
Snow Depth Not available.
UV 9 out of 12
Pollen 4.70 out of 12
Air Quality Not available.
Flu Activity Not available.
METAR KSDY 061855Z AUTO 29007KT 9SM SCT050 22/08 A3019 RMK AO1

More Conditions Fewer Conditions

10-Day Weather Forecast

×

Almanac

Astronomy

Jul. 06, 2015 Rise Set
Actual Time
Civil Twilight
Nautical Twilight
Astronomical Twilight
Moon
Length of Visible Light
Length of Day
Tomorrow will be .
, % of the Moon is Illuminated

Today's Extremes

State Highs State Lows

Community

WunderPhotos

Upload Photos

1,835,616 photos uploaded!

WunderBlogs® & News

Nearby

Air Quality

  Air Quality AQ Index Pollutant
Not available.

Snow Depth

Station Depth Elevation

Earthquake Activity

City Distance Mag. Time & Date
Minimum magnitude displayed is 2.5.

Coastal Water Temperatures

Place Temperature

Stations

Nearby Weather Stations

Station Location Temp. Windchill Dew Point Humidity Wind Precip. Elev Updated Type